createdAt,value
2022-08-20T00:04:59.053Z,148.65116
2022-08-20T00:10:00.666Z,129.54217
2022-08-20T00:15:02.283Z,112.30601
2022-08-20T00:20:03.889Z,135.90031
2022-08-20T00:25:05.489Z,145.96721
2022-08-20T00:30:07.168Z,115.11111
2022-08-20T00:35:08.755Z,131.80488
2022-08-20T00:40:22.535Z,126.78932
2022-08-20T00:45:24.852Z,103.58549
2022-08-20T00:50:26.512Z,86.92343
2022-08-20T00:55:31.466Z,106.10526
2022-08-20T01:00:33.529Z,82.42697
2022-08-20T01:05:35.502Z,113.69697
2022-08-20T01:10:37.072Z,108.26667
2022-08-20T01:15:42.633Z,125.71091
2022-08-20T01:20:44.898Z,147.97351
2022-08-20T01:25:46.480Z,155.68385
2022-08-20T01:30:48.214Z,158.63415
2022-08-20T01:35:49.798Z,154.9589
2022-08-20T01:40:51.398Z,161.66784
2022-08-20T01:45:53.014Z,154.9589
2022-08-20T01:50:54.638Z,134.71207
2022-08-20T01:55:56.220Z,162.43972
2022-08-20T02:00:58.716Z,138.93671
2022-08-20T02:06:00.396Z,127.8806
2022-08-20T02:11:02.064Z,121.01149
2022-08-20T02:16:03.655Z,116.06704
2022-08-20T02:21:05.281Z,116.06704
2022-08-20T02:26:06.902Z,98
2022-08-20T02:31:08.508Z,85.93548
2022-08-20T02:36:10.157Z,84
2022-08-20T02:41:11.799Z,122.03468
2022-08-20T02:46:13.406Z,92.07692
2022-08-20T02:51:14.987Z,152.81356
2022-08-20T02:56:16.627Z,110.48649
2022-08-20T03:01:18.293Z,91.72182
2022-08-20T03:06:19.915Z,79.08772
2022-08-20T03:11:21.527Z,85.93548
2022-08-20T03:16:23.151Z,99.94937
2022-08-20T03:21:24.760Z,67.69478
2022-08-20T03:26:26.374Z,57.86322
2022-08-20T03:31:28.006Z,62.68979
2022-08-20T03:36:29.616Z,77.04536
2022-08-20T03:41:31.229Z,88.60094
2022-08-20T03:46:32.821Z,101.14286
2022-08-20T03:51:56.457Z,83.05192
2022-08-20T03:57:00.275Z,76.47312
2022-08-20T04:02:01.979Z,75.90578
2022-08-20T04:07:03.714Z,93.51456
2022-08-20T04:12:05.325Z,80.28319
2022-08-20T04:17:06.985Z,118.0113
2022-08-20T04:22:08.583Z,103.58549
2022-08-20T04:27:10.210Z,104.83551
2022-08-20T04:32:11.798Z,94.2439
2022-08-20T04:37:17.346Z,139.55556
2022-08-20T04:42:19.147Z,137.71069
2022-08-20T04:47:20.938Z,203.91561
2022-08-20T04:52:36.202Z,186.51969
2022-08-20T04:57:38.012Z,206.12766
2022-08-20T05:02:39.621Z,171.30627
2022-08-20T05:07:41.243Z,206.12766
2022-08-20T05:12:42.924Z,164.78853
2022-08-20T05:17:58.502Z,181.83784
2022-08-20T05:23:00.092Z,144.65147
2022-08-20T05:28:01.830Z,142.07074
2022-08-20T05:33:04.317Z,136.5
2022-08-20T05:38:06.155Z,180.92308
2022-08-20T05:43:07.788Z,152.10811
2022-08-20T05:48:09.547Z,138.32177
2022-08-20T05:53:11.200Z,128.43114
2022-08-20T05:58:12.857Z,142.07074
2022-08-20T06:03:14.567Z,140.80511
2022-08-20T06:08:16.171Z,166.38267
2022-08-20T06:13:17.907Z,142.07074
2022-08-20T06:18:28.612Z,124.11696
2022-08-20T06:23:43.659Z,180.92308
2022-08-20T06:28:59.842Z,199.60166
2022-08-20T06:34:01.416Z,354.66667
2022-08-20T06:39:03.076Z,349.26316
2022-08-20T06:44:04.664Z,324.24691
2022-08-20T06:49:06.280Z,396.94118
2022-08-20T06:54:07.946Z,390.37681
2022-08-20T06:59:09.549Z,317.33333
2022-08-20T07:04:11.146Z,319.60976
2022-08-20T07:09:12.752Z,310.66667
2022-08-20T07:14:14.344Z,368.82759
2022-08-20T07:19:15.963Z,393.63504
2022-08-20T07:24:17.543Z,400.2963
2022-08-20T07:29:21.644Z,403.70149
2022-08-20T07:34:23.610Z,354.66667
2022-08-20T07:39:25.413Z,302.13953
2022-08-20T07:44:31.040Z,282.46154
2022-08-20T07:49:33.090Z,219
2022-08-20T07:54:34.657Z,172.14815
2022-08-20T07:59:36.402Z,183.68872
2022-08-20T08:04:38.052Z,188.44444
2022-08-20T08:09:39.692Z,191.38956
2022-08-20T08:14:41.326Z,150.71141
2022-08-20T08:19:42.995Z,162.43972
2022-08-20T08:24:57.082Z,161.66784
2022-08-20T08:29:59.445Z,203.91561
2022-08-20T08:35:01.041Z,212.99563
2022-08-20T08:40:02.710Z,210.66667
2022-08-20T08:45:04.405Z,238.73684
2022-08-20T08:50:05.970Z,219
2022-08-20T08:55:07.572Z,179.1145
2022-08-20T09:00:09.157Z,188.44444
2022-08-20T09:05:10.771Z,166.38267
2022-08-20T09:10:12.362Z,161.66784
2022-08-20T09:15:14.004Z,185.56863
2022-08-20T09:20:16.615Z,180.92308
2022-08-20T09:25:18.212Z,217.77778
2022-08-20T09:30:19.753Z,238.73684
2022-08-20T09:35:22.016Z,199.60166
2022-08-20T09:40:23.763Z,162.43972
2022-08-20T09:45:25.413Z,187.47826
2022-08-20T09:50:27.051Z,160.90141
2022-08-20T09:55:28.682Z,158.63415
2022-08-20T10:00:30.318Z,183.68872
2022-08-20T10:05:31.937Z,145.96721
2022-08-20T10:10:33.711Z,144
2022-08-20T10:15:35.297Z,146.63158
2022-08-20T10:20:36.993Z,168.81752
2022-08-20T10:25:38.643Z,150.02007
2022-08-20T10:30:40.224Z,170.47059
2022-08-20T10:35:41.883Z,184.625
2022-08-20T10:40:43.527Z,132.95706
2022-08-20T10:45:54.212Z,150.02007
2022-08-20T10:50:55.778Z,140.17834
2022-08-20T10:55:57.389Z,131.23404
2022-08-20T11:00:59.121Z,194.4065
2022-08-20T11:06:00.740Z,147.97351
2022-08-20T11:11:02.422Z,147.30033
2022-08-20T11:16:04.038Z,135.90031
2022-08-20T11:21:05.629Z,130.10272
2022-08-20T11:26:10.488Z,131.23404
2022-08-20T11:31:12.091Z,117.52113
2022-08-20T11:36:13.739Z,131.23404
2022-08-20T11:41:15.362Z,147.30033
2022-08-20T11:46:16.996Z,144
2022-08-20T11:51:18.680Z,131.80488
2022-08-20T11:56:20.275Z,138.93671
2022-08-20T12:01:22.726Z,129.54217
2022-08-20T12:06:24.340Z,144
2022-08-20T12:11:25.958Z,106.96296
2022-08-20T12:16:27.588Z,140.17834
2022-08-20T12:21:32.369Z,100.34518
2022-08-20T12:26:34.371Z,132.95706
2022-08-20T12:31:35.998Z,137.71069
2022-08-20T12:36:37.605Z,142.07074
2022-08-20T12:41:39.325Z,116.54902
2022-08-20T12:46:40.962Z,124.11696
2022-08-20T12:51:42.586Z,114.16575
2022-08-20T12:56:44.189Z,122.03468
2022-08-20T13:01:45.879Z,100.743
2022-08-20T13:06:47.664Z,111.3913
2022-08-20T13:11:49.788Z,102.35476
2022-08-20T13:16:51.367Z,102.35476
2022-08-20T13:21:55.356Z,114.16575
2022-08-20T13:26:56.970Z,146.63158
2022-08-20T13:31:58.588Z,139.55556
2022-08-20T13:37:00.213Z,125.71091
2022-08-20T13:42:01.815Z,153.52381
2022-08-20T13:47:03.437Z,132.95706
2022-08-20T13:52:05.112Z,122.03468
2022-08-20T13:57:07.368Z,127.33333
2022-08-20T14:02:09.038Z,145.30719
2022-08-20T14:07:10.727Z,154.23891
2022-08-20T14:12:12.333Z,169.64103
2022-08-20T14:17:13.915Z,144.65147
2022-08-20T14:22:16.859Z,190.4
2022-08-20T14:27:18.474Z,200.66667
2022-08-20T14:32:20.098Z,208.37768
2022-08-20T14:37:21.896Z,159.38462
2022-08-20T14:42:23.454Z,156.41379
2022-08-20T14:47:25.037Z,124.64516
2022-08-20T14:52:27.667Z,145.96721
2022-08-20T14:57:29.954Z,151.40741
2022-08-20T15:02:31.584Z,167.18841
2022-08-20T15:07:33.200Z,150.71141
2022-08-20T15:12:34.794Z,178.22053
2022-08-20T15:17:36.402Z,164.78853
2022-08-20T15:22:38.019Z,147.30033
2022-08-20T15:27:39.626Z,113.23077
2022-08-20T15:32:41.248Z,123.06977
2022-08-20T15:37:42.940Z,137.10345
2022-08-20T15:42:46.558Z,138.93671
2022-08-20T15:47:48.411Z,143.35275
2022-08-20T15:52:49.993Z,131.23404
2022-08-20T15:57:51.705Z,132.3792
2022-08-20T16:02:53.367Z,112.76712
2022-08-20T16:07:54.999Z,131.23404
2022-08-20T16:12:56.743Z,126.78932
2022-08-20T16:17:58.395Z,104.83551
2022-08-20T16:23:00.017Z,104.41667
2022-08-20T16:28:01.655Z,105.25654
2022-08-20T16:33:03.290Z,112.76712
2022-08-20T16:38:04.865Z,130.66667
2022-08-20T16:43:06.494Z,138.93671
2022-08-20T16:48:08.100Z,144.65147
2022-08-20T16:53:09.829Z,157.14879
2022-08-20T16:58:11.525Z,164
2022-08-20T17:03:13.184Z,158.63415
2022-08-20T17:08:14.781Z,160.90141
2022-08-20T17:13:18.777Z,147.97351
2022-08-20T17:18:20.381Z,154.9589
2022-08-20T17:23:22.004Z,157.88889
2022-08-20T17:28:23.678Z,180.92308
2022-08-20T17:33:25.271Z,183.68872
2022-08-20T17:38:26.894Z,178.22053
2022-08-20T17:43:28.483Z,179.1145
2022-08-20T17:48:30.125Z,209.51724
2022-08-20T17:53:31.749Z,157.88889
2022-08-20T17:58:33.368Z,132.95706
2022-08-20T18:03:34.967Z,171.30627
2022-08-20T18:08:36.637Z,160.14035
2022-08-20T18:13:38.229Z,158.63415
2022-08-20T18:18:56.270Z,157.88889
2022-08-20T18:23:58.896Z,154.23891
2022-08-20T18:29:00.493Z,156.41379
2022-08-20T18:34:02.152Z,194.4065
2022-08-20T18:39:03.790Z,178.22053
2022-08-20T18:44:05.398Z,195.42857
2022-08-20T18:49:06.977Z,198.54545
2022-08-20T18:54:08.566Z,193.39271
2022-08-20T18:59:10.192Z,180.01533
2022-08-20T19:04:11.841Z,138.93671
2022-08-20T19:09:13.472Z,130.66667
2022-08-20T19:14:15.071Z,136.5
2022-08-20T19:19:16.794Z,140.80511
2022-08-20T19:24:18.429Z,152.10811
2022-08-20T19:29:20.120Z,171.30627
2022-08-20T19:34:22.564Z,180.01533
2022-08-20T19:39:25.726Z,211.82609
2022-08-20T19:44:27.589Z,214.17544
2022-08-20T19:49:29.210Z,190.4
2022-08-20T19:54:30.909Z,165.58273
2022-08-20T19:59:32.488Z,200.66667
2022-08-20T20:04:34.118Z,185.56863
2022-08-20T20:09:35.770Z,162.43972
2022-08-20T20:14:37.346Z,195.42857
2022-08-20T20:19:38.979Z,189.41833
2022-08-20T20:24:40.600Z,181.83784
2022-08-20T20:29:42.255Z,156.41379
2022-08-20T20:34:55.449Z,154.9589
2022-08-20T20:39:57.880Z,127.33333
2022-08-20T20:44:59.549Z,152.81356
2022-08-20T20:50:01.196Z,167.18841
2022-08-20T20:55:02.799Z,173.85075
2022-08-20T21:00:04.423Z,160.14035
2022-08-20T21:05:06.127Z,180.01533
2022-08-20T21:10:07.771Z,183.68872
2022-08-20T21:15:09.346Z,179.1145
2022-08-20T21:20:10.922Z,210.66667
2022-08-20T21:25:12.496Z,219
2022-08-20T21:30:14.126Z,215.36564
2022-08-20T21:35:15.719Z,198.54545
2022-08-20T21:40:18.283Z,168.81752
2022-08-20T21:45:23.650Z,159.38462
2022-08-20T21:50:30.214Z,131.23404
2022-08-20T21:55:36.146Z,124.64516
2022-08-20T22:00:40.508Z,114.16575
2022-08-20T22:05:42.085Z,120
2022-08-20T22:10:43.723Z,125.71091
2022-08-20T22:15:45.313Z,121.01149
2022-08-20T22:20:46.912Z,122.55072
2022-08-20T22:25:48.528Z,130.10272
2022-08-20T22:30:50.138Z,123.59184
2022-08-20T22:35:51.749Z,149.33333
2022-08-20T22:40:53.397Z,171.30627
2022-08-20T22:45:54.979Z,175.57895
2022-08-20T22:50:56.625Z,184.625
2022-08-20T22:55:58.214Z,125.17647
2022-08-20T23:01:00.002Z,90.31829
2022-08-20T23:06:01.684Z,91.36842
2022-08-20T23:11:03.299Z,73.95781
2022-08-20T23:16:04.917Z,109.5914
2022-08-20T23:21:06.509Z,130.66667
2022-08-20T23:26:08.108Z,107.39523
2022-08-20T23:31:09.733Z,118.0113
2022-08-20T23:36:11.321Z,119
2022-08-20T23:41:12.907Z,107.39523
2022-08-20T23:46:14.520Z,152.10811
2022-08-20T23:51:16.096Z,165.58273
2022-08-20T23:56:17.762Z,170.47059
